createdAt,value
2023-02-12T00:00:18.143Z,3.65
2023-02-12T00:03:27.390Z,3.25
2023-02-12T00:06:35.334Z,3.45
2023-02-12T00:09:43.515Z,3.20
2023-02-12T00:12:51.299Z,3.22
2023-02-12T00:15:59.397Z,3.17
2023-02-12T00:19:08.799Z,3.90
2023-02-12T00:22:17.035Z,3.47
2023-02-12T00:25:25.242Z,3.38
2023-02-12T00:28:33.130Z,3.42
2023-02-12T00:31:41.097Z,3.72
2023-02-12T00:34:50.501Z,3.25
2023-02-12T00:37:58.733Z,3.65
2023-02-12T00:41:06.690Z,3.33
2023-02-12T00:44:14.655Z,3.95
2023-02-12T00:47:22.857Z,4.38
2023-02-12T00:50:32.695Z,3.67
2023-02-12T00:53:41.911Z,3.65
2023-02-12T00:56:49.842Z,3.80
2023-02-12T00:59:57.923Z,3.55
2023-02-12T01:03:05.990Z,3.78
2023-02-12T01:06:15.411Z,3.58
2023-02-12T01:09:23.482Z,3.92
2023-02-12T01:12:31.991Z,3.78
2023-02-12T01:15:39.843Z,3.47
2023-02-12T01:18:48.018Z,3.85
2023-02-12T01:21:57.505Z,3.50
2023-02-12T01:25:05.403Z,3.65
2023-02-12T01:28:13.338Z,3.30
2023-02-12T01:31:22.268Z,4.18
2023-02-12T01:34:31.486Z,3.63
2023-02-12T01:37:40.852Z,3.50
2023-02-12T01:40:49.005Z,3.40
2023-02-12T01:44:10.940Z,4.10
2023-02-12T01:47:19.148Z,4.28
2023-02-12T01:50:27.030Z,3.50
2023-02-12T01:53:37.113Z,3.05
2023-02-12T01:56:45.572Z,3.50
2023-02-12T01:59:54.328Z,3.38
2023-02-12T02:03:02.244Z,3.80
2023-02-12T02:06:11.213Z,3.22
2023-02-12T02:09:21.519Z,3.58
2023-02-12T02:12:46.800Z,3.33
2023-02-12T02:15:57.655Z,3.95
2023-02-12T02:19:09.736Z,3.50
2023-02-12T02:22:25.728Z,3.58
2023-02-12T02:26:01.805Z,3.92
2023-02-12T02:29:20.909Z,3.25
2023-02-12T02:32:31.018Z,2.95
2023-02-12T02:35:41.782Z,3.13
2023-02-12T02:38:51.976Z,4.03
2023-02-12T02:42:01.249Z,3.55
2023-02-12T02:45:12.177Z,3.88
2023-02-12T02:48:23.207Z,3.38
2023-02-12T02:51:32.982Z,3.53
2023-02-12T02:54:43.039Z,3.70
2023-02-12T02:57:53.312Z,4.43
2023-02-12T03:01:03.851Z,3.47
2023-02-12T03:04:14.988Z,3.15
2023-02-12T03:07:24.869Z,3.67
2023-02-12T03:10:33.626Z,2.97
2023-02-12T03:13:43.520Z,3.00
2023-02-12T03:16:54.184Z,3.92
2023-02-12T03:20:05.360Z,3.45
2023-02-12T03:23:14.816Z,2.90
2023-02-12T03:26:24.075Z,4.18
2023-02-12T03:29:32.415Z,4.07
2023-02-12T03:32:43.584Z,3.60
2023-02-12T03:35:57.350Z,2.97
2023-02-12T03:39:13.932Z,3.22
2023-02-12T03:42:25.642Z,3.53
2023-02-12T03:45:42.150Z,2.97
2023-02-12T03:48:57.289Z,2.85
2023-02-12T03:52:06.750Z,3.00
2023-02-12T03:55:14.987Z,3.88
2023-02-12T03:58:24.623Z,3.50
2023-02-12T04:01:33.290Z,2.90
2023-02-12T04:04:41.223Z,2.72
2023-02-12T04:07:50.646Z,3.90
2023-02-12T04:11:03.469Z,3.28
2023-02-12T04:14:17.009Z,3.38
2023-02-12T04:17:30.400Z,3.25
2023-02-12T04:20:44.340Z,3.63
2023-02-12T04:23:58.728Z,3.38
2023-02-12T04:27:10.469Z,3.00
2023-02-12T04:30:22.456Z,3.35
2023-02-12T04:33:33.518Z,3.25
2023-02-12T04:36:45.977Z,3.20
2023-02-12T04:39:55.188Z,3.10
2023-02-12T04:43:03.072Z,3.33
2023-02-12T04:46:10.940Z,3.53
2023-02-12T04:49:19.779Z,2.80
2023-02-12T04:52:27.587Z,3.13
2023-02-12T04:55:36.792Z,3.10
2023-02-12T04:58:44.748Z,2.65
2023-02-12T05:01:52.880Z,3.00
2023-02-12T05:05:00.786Z,3.15
2023-02-12T05:08:08.502Z,2.80
2023-02-12T05:11:17.796Z,2.42
2023-02-12T05:14:25.883Z,2.75
2023-02-12T05:17:34.010Z,2.75
2023-02-12T05:20:42.127Z,3.72
2023-02-12T05:23:50.365Z,3.00
2023-02-12T05:26:59.920Z,3.30
2023-02-12T05:30:09.569Z,2.90
2023-02-12T05:33:17.480Z,2.40
2023-02-12T05:36:25.791Z,2.72
2023-02-12T05:39:33.852Z,3.10
2023-02-12T05:42:42.987Z,2.53
2023-02-12T05:45:51.002Z,2.30
2023-02-12T05:48:58.946Z,2.53
2023-02-12T05:52:06.922Z,2.65
2023-02-12T05:55:14.999Z,2.33
2023-02-12T05:58:24.395Z,2.30
2023-02-12T06:01:33.306Z,2.50
2023-02-12T06:04:41.258Z,2.60
2023-02-12T06:07:49.339Z,2.63
2023-02-12T06:11:01.179Z,2.63
2023-02-12T06:14:12.277Z,2.17
2023-02-12T06:17:22.681Z,3.03
2023-02-12T06:20:30.688Z,2.20
2023-02-12T06:23:38.687Z,2.10
2023-02-12T06:26:46.817Z,2.53
2023-02-12T06:29:56.276Z,2.28
2023-02-12T06:33:04.458Z,2.53
2023-02-12T06:36:12.294Z,2.10
2023-02-12T06:39:20.525Z,2.25
2023-02-12T06:42:28.733Z,2.00
2023-02-12T06:45:38.137Z,3.30
2023-02-12T06:48:46.132Z,2.67
2023-02-12T06:51:54.143Z,2.10
2023-02-12T06:55:02.108Z,2.30
2023-02-12T06:58:10.144Z,2.17
2023-02-12T07:01:21.471Z,1.65
2023-02-12T07:04:29.316Z,2.08
2023-02-12T07:07:37.338Z,2.03
2023-02-12T07:10:49.834Z,1.88
2023-02-12T07:13:57.648Z,2.10
2023-02-12T07:17:08.638Z,2.05
2023-02-12T07:20:16.967Z,2.63
2023-02-12T07:23:25.044Z,2.22
2023-02-12T07:26:32.801Z,2.13
2023-02-12T07:29:41.008Z,1.77
2023-02-12T07:32:50.534Z,1.95
2023-02-12T07:36:01.365Z,1.88
2023-02-12T07:39:09.076Z,1.75
2023-02-12T07:42:17.298Z,1.65
2023-02-12T07:48:39.188Z,1.48
2023-02-12T07:51:47.043Z,1.55
2023-02-12T07:54:55.148Z,2.00
2023-02-12T07:58:03.144Z,1.85
2023-02-12T08:01:16.294Z,1.70
2023-02-12T08:07:33.685Z,1.63
2023-02-12T08:10:41.593Z,2.00
2023-02-12T08:13:49.730Z,1.88
2023-02-12T08:16:57.488Z,2.40
2023-02-12T08:20:07.883Z,1.90
2023-02-12T08:23:16.008Z,1.60
2023-02-12T08:26:25.485Z,1.45
2023-02-12T08:29:33.486Z,1.30
2023-02-12T08:32:41.252Z,1.65
2023-02-12T08:35:50.747Z,1.30
2023-02-12T08:38:59.041Z,1.70
2023-02-12T08:42:07.073Z,1.52
2023-02-12T08:45:15.237Z,1.35
2023-02-12T08:48:22.985Z,1.75
2023-02-12T08:51:33.077Z,1.08
2023-02-12T08:54:41.163Z,1.33
2023-02-12T08:57:48.929Z,1.35
2023-02-12T09:00:56.811Z,1.25
2023-02-12T09:04:04.554Z,1.40
2023-02-12T09:07:13.724Z,1.15
2023-02-12T09:10:21.707Z,1.40
2023-02-12T09:13:29.798Z,1.30
2023-02-12T09:16:39.616Z,1.30
2023-02-12T09:19:47.592Z,1.77
2023-02-12T09:22:56.854Z,1.35
2023-02-12T09:26:05.591Z,1.10
2023-02-12T09:29:13.363Z,1.20
2023-02-12T09:32:21.557Z,2.00
2023-02-12T09:35:29.485Z,1.27
2023-02-12T09:38:39.015Z,1.10
2023-02-12T09:42:18.989Z,2.03
2023-02-12T09:45:27.685Z,1.00
2023-02-12T09:48:49.085Z,1.40
2023-02-12T09:51:56.995Z,1.08
2023-02-12T09:55:06.612Z,0.90
2023-02-12T09:58:15.991Z,0.90
2023-02-12T10:01:24.070Z,1.48
2023-02-12T10:04:32.189Z,1.60
2023-02-12T10:07:58.558Z,1.20
2023-02-12T10:11:34.871Z,1.10
2023-02-12T10:14:58.832Z,0.98
2023-02-12T10:18:35.145Z,1.13
2023-02-12T10:21:48.909Z,0.93
2023-02-12T10:25:09.501Z,1.10
2023-02-12T10:28:20.845Z,0.95
2023-02-12T10:31:31.922Z,1.00
2023-02-12T10:34:39.875Z,0.98
2023-02-12T10:37:50.279Z,1.00
2023-02-12T10:41:01.735Z,0.95
2023-02-12T10:44:12.259Z,0.88
2023-02-12T10:47:21.601Z,1.00
2023-02-12T10:50:33.963Z,0.90
2023-02-12T10:53:42.852Z,1.20
2023-02-12T10:56:50.886Z,1.10
2023-02-12T11:00:15.844Z,0.70
2023-02-12T11:03:24.700Z,0.90
2023-02-12T11:06:34.299Z,0.80
2023-02-12T11:09:45.498Z,1.17
2023-02-12T11:12:53.452Z,0.95
2023-02-12T11:16:03.399Z,0.95
2023-02-12T11:19:20.834Z,0.95
2023-02-12T11:22:28.959Z,0.80
2023-02-12T11:25:37.864Z,0.90
2023-02-12T11:28:54.452Z,1.00
2023-02-12T11:32:04.723Z,1.15
2023-02-12T11:35:15.204Z,1.13
2023-02-12T11:38:26.090Z,1.55
2023-02-12T11:41:36.200Z,1.00
2023-02-12T11:44:45.255Z,1.00
2023-02-12T11:47:54.752Z,1.20
2023-02-12T11:51:03.523Z,1.25
2023-02-12T11:54:19.228Z,1.23
2023-02-12T11:57:36.640Z,0.98
2023-02-12T12:00:47.096Z,1.08
2023-02-12T12:03:59.838Z,1.00
2023-02-12T12:07:12.588Z,0.80
2023-02-12T12:10:22.343Z,1.30
2023-02-12T12:13:33.235Z,1.10
2023-02-12T12:17:01.497Z,1.08
2023-02-12T12:20:13.650Z,1.00
2023-02-12T12:23:22.744Z,1.50
2023-02-12T12:26:31.320Z,0.95
2023-02-12T12:29:43.356Z,1.33
2023-02-12T12:32:52.730Z,0.70
2023-02-12T12:36:13.739Z,1.35
2023-02-12T12:39:28.094Z,0.98
2023-02-12T12:43:11.278Z,1.10
2023-02-12T12:46:28.010Z,1.42
2023-02-12T12:49:50.210Z,1.30
2023-02-12T12:53:05.496Z,0.90
2023-02-12T12:56:27.172Z,1.13
2023-02-12T13:00:00.538Z,1.45
2023-02-12T13:06:53.341Z,1.20
2023-02-12T13:10:11.645Z,1.30
2023-02-12T13:13:23.792Z,0.98
2023-02-12T13:16:32.212Z,1.00
2023-02-12T13:19:48.236Z,1.05
2023-02-12T13:22:58.552Z,0.82
2023-02-12T13:26:11.549Z,0.98
2023-02-12T13:29:21.591Z,1.05
2023-02-12T13:32:30.443Z,1.20
2023-02-12T13:35:41.012Z,1.23
2023-02-12T13:38:52.104Z,1.45
2023-02-12T13:42:09.788Z,0.95
2023-02-12T13:45:22.740Z,1.10
2023-02-12T13:48:41.019Z,0.88
2023-02-12T13:51:49.880Z,0.95
2023-02-12T13:55:02.355Z,1.20
2023-02-12T13:58:46.695Z,1.10
2023-02-12T14:01:54.556Z,1.00
2023-02-12T14:05:02.824Z,0.77
2023-02-12T14:08:36.090Z,1.20
2023-02-12T14:11:48.372Z,1.25
2023-02-12T14:14:58.247Z,0.85
2023-02-12T14:18:08.544Z,0.82
2023-02-12T14:21:44.071Z,1.00
2023-02-12T14:24:53.087Z,0.90
2023-02-12T14:28:06.660Z,0.80
2023-02-12T14:31:33.230Z,0.63
2023-02-12T14:34:41.458Z,0.50
2023-02-12T14:37:49.472Z,0.63
2023-02-12T14:41:34.012Z,1.20
2023-02-12T14:44:46.617Z,0.70
2023-02-12T14:47:56.164Z,0.75
2023-02-12T14:51:04.499Z,0.80
2023-02-12T14:54:14.822Z,1.25
2023-02-12T14:57:25.509Z,0.77
2023-02-12T15:00:36.464Z,0.90
2023-02-12T15:03:48.559Z,1.00
2023-02-12T15:06:58.463Z,1.00
2023-02-12T15:10:10.601Z,1.15
2023-02-12T15:13:21.231Z,0.77
2023-02-12T15:16:35.884Z,0.70
2023-02-12T15:19:48.154Z,0.80
2023-02-12T15:22:56.018Z,0.77
2023-02-12T15:26:04.928Z,0.77
2023-02-12T15:29:20.551Z,0.82
2023-02-12T15:32:29.565Z,0.63
2023-02-12T15:35:41.024Z,0.90
2023-02-12T15:38:50.498Z,0.68
2023-02-12T15:41:58.541Z,0.93
2023-02-12T15:45:20.410Z,0.88
2023-02-12T15:48:31.686Z,0.73
2023-02-12T15:51:41.603Z,0.95
2023-02-12T15:54:49.827Z,1.15
2023-02-12T15:57:58.948Z,0.40
2023-02-12T16:01:07.671Z,0.60
2023-02-12T16:04:15.812Z,1.10
2023-02-12T16:07:25.184Z,0.57
2023-02-12T16:10:33.331Z,0.80
2023-02-12T16:13:43.320Z,0.80
2023-02-12T16:16:52.842Z,1.17
2023-02-12T16:20:01.647Z,0.70
2023-02-12T16:23:13.086Z,0.63
2023-02-12T16:26:22.224Z,1.02
2023-02-12T16:29:37.761Z,0.85
2023-02-12T16:32:45.925Z,0.65
2023-02-12T16:36:01.673Z,1.00
2023-02-12T16:39:11.237Z,0.75
2023-02-12T16:42:24.704Z,0.93
2023-02-12T16:45:41.459Z,0.65
2023-02-12T16:48:51.682Z,0.73
2023-02-12T16:52:19.419Z,1.20
2023-02-12T16:55:28.841Z,0.90
2023-02-12T16:58:36.943Z,0.98
2023-02-12T17:01:57.012Z,0.77
2023-02-12T17:05:07.238Z,0.95
2023-02-12T17:08:16.095Z,0.80
2023-02-12T17:11:25.655Z,0.77
2023-02-12T17:14:33.504Z,0.52
2023-02-12T17:17:41.691Z,0.82
2023-02-12T17:20:52.776Z,0.63
2023-02-12T17:24:00.848Z,1.00
2023-02-12T17:27:11.576Z,0.68
2023-02-12T17:30:20.825Z,1.00
2023-02-12T17:33:28.822Z,0.90
2023-02-12T17:36:36.914Z,1.23
2023-02-12T17:39:45.062Z,0.88
2023-02-12T17:42:54.503Z,0.80
2023-02-12T17:46:02.670Z,0.88
2023-02-12T17:49:10.631Z,0.73
2023-02-12T17:52:18.826Z,1.23
2023-02-12T17:55:26.643Z,1.27
2023-02-12T17:58:36.153Z,1.27
2023-02-12T18:01:45.534Z,1.05
2023-02-12T18:04:53.306Z,0.70
2023-02-12T18:08:03.464Z,0.60
2023-02-12T18:11:12.192Z,0.98
2023-02-12T18:14:21.487Z,1.00
2023-02-12T18:17:29.703Z,0.98
2023-02-12T18:20:37.938Z,1.05
2023-02-12T18:23:45.768Z,1.13
2023-02-12T18:26:53.655Z,0.70
2023-02-12T18:30:03.143Z,0.73
2023-02-12T18:33:11.180Z,1.10
2023-02-12T18:36:19.931Z,0.68
2023-02-12T18:39:29.060Z,1.08
2023-02-12T18:42:37.125Z,1.02
2023-02-12T18:45:46.520Z,1.20
2023-02-12T18:48:54.687Z,0.90
2023-02-12T18:52:02.977Z,0.95
2023-02-12T18:55:10.815Z,0.90
2023-02-12T18:58:18.621Z,0.73
2023-02-12T19:01:27.804Z,1.85
2023-02-12T19:04:35.779Z,1.33
2023-02-12T19:07:43.603Z,0.85
2023-02-12T19:10:51.808Z,1.25
2023-02-12T19:14:00.130Z,0.90
2023-02-12T19:17:09.584Z,0.90
2023-02-12T19:20:17.777Z,1.10
2023-02-12T19:23:25.663Z,1.38
2023-02-12T19:26:34.510Z,1.15
2023-02-12T19:29:42.674Z,0.70
2023-02-12T19:32:51.882Z,0.70
2023-02-12T19:35:59.972Z,1.05
2023-02-12T19:39:07.920Z,1.15
2023-02-12T19:42:17.633Z,1.08
2023-02-12T19:45:25.450Z,1.00
2023-02-12T19:48:34.607Z,0.80
2023-02-12T19:51:42.797Z,1.08
2023-02-12T19:54:50.856Z,1.13
2023-02-12T19:57:59.060Z,1.40
2023-02-12T20:01:09.425Z,1.60
2023-02-12T20:04:20.584Z,1.05
2023-02-12T20:07:28.326Z,1.00
2023-02-12T20:10:36.232Z,1.08
2023-02-12T20:13:44.399Z,0.90
2023-02-12T20:16:54.264Z,0.95
2023-02-12T20:20:03.407Z,1.15
2023-02-12T20:23:11.285Z,0.90
2023-02-12T20:26:19.602Z,1.02
2023-02-12T20:29:27.911Z,1.23
2023-02-12T20:32:35.940Z,0.90
2023-02-12T20:35:45.094Z,1.13
2023-02-12T20:38:55.855Z,1.00
2023-02-12T20:42:04.087Z,1.10
2023-02-12T20:45:12.176Z,1.00
2023-02-12T20:48:21.500Z,1.08
2023-02-12T20:51:31.166Z,1.05
2023-02-12T20:54:39.117Z,1.00
2023-02-12T20:57:49.096Z,1.40
2023-02-12T21:01:03.305Z,0.93
2023-02-12T21:04:12.370Z,0.90
2023-02-12T21:07:21.664Z,0.65
2023-02-12T21:10:30.707Z,1.45
2023-02-12T21:13:39.984Z,1.02
2023-02-12T21:16:47.737Z,1.00
2023-02-12T21:19:55.692Z,0.93
2023-02-12T21:23:05.217Z,0.93
2023-02-12T21:26:14.201Z,0.93
2023-02-12T21:29:22.121Z,0.73
2023-02-12T21:32:30.377Z,1.48
2023-02-12T21:35:39.264Z,1.00
2023-02-12T21:38:49.853Z,1.02
2023-02-12T21:41:58.376Z,0.90
2023-02-12T21:45:06.914Z,1.10
2023-02-12T21:48:15.059Z,1.13
2023-02-12T21:51:23.986Z,0.77
2023-02-12T21:54:33.142Z,0.85
2023-02-12T21:57:40.993Z,1.58
2023-02-12T22:00:50.369Z,1.10
2023-02-12T22:03:58.629Z,1.52
2023-02-12T22:07:08.115Z,1.25
2023-02-12T22:10:17.497Z,1.35
2023-02-12T22:13:25.521Z,1.08
2023-02-12T22:16:33.637Z,0.98
2023-02-12T22:19:41.969Z,1.20
2023-02-12T22:22:49.804Z,0.82
2023-02-12T22:26:06.303Z,1.02
2023-02-12T22:29:15.771Z,0.85
2023-02-12T22:32:23.637Z,0.68
2023-02-12T22:35:31.891Z,0.77
2023-02-12T22:38:40.344Z,1.10
2023-02-12T22:41:49.738Z,1.20
2023-02-12T22:44:57.599Z,0.85
2023-02-12T22:48:06.193Z,1.02
2023-02-12T22:51:15.019Z,1.38
2023-02-12T22:54:23.246Z,0.70
2023-02-12T22:57:32.597Z,0.80
2023-02-12T23:00:41.189Z,1.33
2023-02-12T23:03:49.328Z,0.82
2023-02-12T23:06:57.097Z,0.90
2023-02-12T23:10:05.305Z,1.10
2023-02-12T23:13:27.859Z,1.05
2023-02-12T23:16:37.214Z,1.17
2023-02-12T23:19:45.278Z,1.13
2023-02-12T23:22:53.162Z,1.30
2023-02-12T23:26:01.257Z,0.75
2023-02-12T23:29:10.809Z,0.85
2023-02-12T23:32:18.897Z,0.77
2023-02-12T23:35:26.879Z,0.80
2023-02-12T23:38:34.724Z,1.02
2023-02-12T23:41:42.942Z,0.75
2023-02-12T23:44:52.407Z,0.60
2023-02-12T23:48:00.714Z,0.80
2023-02-12T23:51:08.707Z,1.05
2023-02-12T23:54:16.902Z,1.08
2023-02-12T23:57:24.960Z,1.05
